createdAt,value
2022-10-10T00:00:29.264Z,60.84
2022-10-10T00:02:30.926Z,61.35
2022-10-10T00:04:32.575Z,61.38
2022-10-10T00:06:34.735Z,61.35
2022-10-10T00:08:36.593Z,61.16
2022-10-10T00:10:38.267Z,61.17
2022-10-10T00:12:39.966Z,60.92
2022-10-10T00:14:41.635Z,61.19
2022-10-10T00:16:43.389Z,60.78
2022-10-10T00:18:45.345Z,60.86
2022-10-10T00:20:47.049Z,60.99
2022-10-10T00:22:49.098Z,60.65
2022-10-10T00:24:50.968Z,60.77
2022-10-10T00:26:52.675Z,60.58
2022-10-10T00:28:54.357Z,60.38
2022-10-10T00:30:56.079Z,60.42
2022-10-10T00:33:01.311Z,60.75
2022-10-10T00:35:04.339Z,60.23
2022-10-10T00:37:06.406Z,60.27
2022-10-10T00:39:08.114Z,60.36
2022-10-10T00:41:09.907Z,60.32
2022-10-10T00:43:13.746Z,60.37
2022-10-10T00:45:35.572Z,60.08
2022-10-10T00:47:37.340Z,59.95
2022-10-10T00:49:44.199Z,60.27
2022-10-10T00:51:48.831Z,60.16
2022-10-10T00:53:55.551Z,59.89
2022-10-10T00:55:57.489Z,59.82
2022-10-10T00:57:59.275Z,59.91
2022-10-10T01:00:01.171Z,60.15
2022-10-10T01:02:03.092Z,59.68
2022-10-10T01:04:05.596Z,59.73
2022-10-10T01:06:07.510Z,59.78
2022-10-10T01:08:10.295Z,59.66
2022-10-10T01:10:17.750Z,59.97
2022-10-10T01:12:51.775Z,59.72
2022-10-10T01:15:09.305Z,59.42
2022-10-10T01:17:54.415Z,59.34
2022-10-10T01:20:02.010Z,59.76
2022-10-10T01:22:38.803Z,59.77
2022-10-10T01:24:56.669Z,59.56
2022-10-10T01:27:18.667Z,59.63
2022-10-10T01:29:56.890Z,59.93
2022-10-10T01:32:16.286Z,59.92
2022-10-10T01:34:36.447Z,59.87
2022-10-10T01:36:43.810Z,60.22
2022-10-10T01:39:00.317Z,59.78
2022-10-10T01:41:14.783Z,59.85
2022-10-10T01:43:17.783Z,59.96
2022-10-10T01:45:19.680Z,60.23
2022-10-10T01:47:22.485Z,59.95
2022-10-10T01:49:28.572Z,60.04
2022-10-10T01:51:36.113Z,60.19
2022-10-10T01:53:48.751Z,59.84
2022-10-10T01:56:02.819Z,59.90
2022-10-10T01:58:16.093Z,60.15
2022-10-10T02:00:19.279Z,60.44
2022-10-10T02:02:28.084Z,60.07
2022-10-10T02:04:44.587Z,60.18
2022-10-10T02:06:53.541Z,60.10
2022-10-10T02:09:00.228Z,60.00
2022-10-10T02:11:08.450Z,60.31
2022-10-10T02:13:11.899Z,60.16
2022-10-10T02:15:21.693Z,60.35
2022-10-10T02:17:26.196Z,60.45
2022-10-10T02:19:30.069Z,60.21
2022-10-10T02:21:32.549Z,60.32
2022-10-10T02:23:35.643Z,60.63
2022-10-10T02:25:40.160Z,60.32
2022-10-10T02:27:59.636Z,60.53
2022-10-10T02:30:04.178Z,60.56
2022-10-10T02:32:22.053Z,60.34
2022-10-10T02:34:29.418Z,60.69
2022-10-10T02:36:31.952Z,60.87
2022-10-10T02:38:33.671Z,60.66
2022-10-10T02:40:36.355Z,60.28
2022-10-10T02:42:39.845Z,60.31
2022-10-10T02:44:42.335Z,60.24
2022-10-10T02:46:44.037Z,60.46
2022-10-10T02:48:45.936Z,60.29
2022-10-10T02:50:48.049Z,60.57
2022-10-10T02:52:49.979Z,60.25
2022-10-10T02:54:51.821Z,60.58
2022-10-10T02:56:53.962Z,60.24
2022-10-10T02:58:55.676Z,60.44
2022-10-10T03:00:57.489Z,60.45
2022-10-10T03:02:59.211Z,60.59
2022-10-10T03:05:00.845Z,60.44
2022-10-10T03:07:11.075Z,60.42
2022-10-10T03:09:12.745Z,60.43
2022-10-10T03:11:14.390Z,60.16
2022-10-10T03:13:16.031Z,60.17
2022-10-10T03:15:17.750Z,60.17
2022-10-10T03:17:19.432Z,60.31
2022-10-10T03:19:21.167Z,60.78
2022-10-10T03:21:22.800Z,60.17
2022-10-10T03:23:25.369Z,60.49
2022-10-10T03:25:26.994Z,60.46
2022-10-10T03:27:30.990Z,60.37
2022-10-10T03:29:32.806Z,60.60
2022-10-10T03:31:34.426Z,60.46
2022-10-10T03:33:36.168Z,60.63
2022-10-10T03:35:38.190Z,60.46
2022-10-10T03:37:39.831Z,60.60
2022-10-10T03:39:41.468Z,60.87
2022-10-10T03:41:43.139Z,60.90
2022-10-10T03:43:44.855Z,61.24
2022-10-10T03:45:47.743Z,61.26
2022-10-10T03:47:49.465Z,61.24
2022-10-10T03:49:51.073Z,61.50
2022-10-10T03:51:53.770Z,61.38
2022-10-10T03:53:55.673Z,61.22
2022-10-10T03:55:57.374Z,61.27
2022-10-10T03:57:59.094Z,60.75
2022-10-10T04:00:00.747Z,60.93
2022-10-10T04:02:02.389Z,60.90
2022-10-10T04:04:05.128Z,61.17
2022-10-10T04:06:07.498Z,61.33
2022-10-10T04:08:09.951Z,61.13
2022-10-10T04:10:11.739Z,60.82
2022-10-10T04:12:13.385Z,61.21
2022-10-10T04:14:15.034Z,60.85
2022-10-10T04:16:16.672Z,61.13
2022-10-10T04:18:19.032Z,60.79
2022-10-10T04:20:20.704Z,60.87
2022-10-10T04:22:22.463Z,61.00
2022-10-10T04:24:24.060Z,61.09
2022-10-10T04:26:25.741Z,61.03
2022-10-10T04:28:27.496Z,60.99
2022-10-10T04:30:34.486Z,60.86
2022-10-10T04:32:36.746Z,60.85
2022-10-10T04:34:38.425Z,61.00
2022-10-10T04:36:40.007Z,60.58
2022-10-10T04:38:41.666Z,61.07
2022-10-10T04:40:43.329Z,60.98
2022-10-10T04:42:44.968Z,60.75
2022-10-10T04:44:46.630Z,61.03
2022-10-10T04:46:48.329Z,60.59
2022-10-10T04:48:50.194Z,60.67
2022-10-10T04:50:53.510Z,60.64
2022-10-10T04:52:55.277Z,60.68
2022-10-10T04:54:56.973Z,61.02
2022-10-10T04:56:58.606Z,60.88
2022-10-10T04:59:00.348Z,60.88
2022-10-10T05:01:02.207Z,60.98
2022-10-10T05:03:03.992Z,61.10
2022-10-10T05:05:06.288Z,61.30
2022-10-10T05:07:13.287Z,60.93
2022-10-10T05:09:14.965Z,61.83
2022-10-10T05:11:16.685Z,62.13
2022-10-10T05:13:18.365Z,62.43
2022-10-10T05:15:21.538Z,63.06
2022-10-10T05:17:23.201Z,63.29
2022-10-10T05:19:25.012Z,63.53
2022-10-10T05:21:26.736Z,64.02
2022-10-10T05:23:28.472Z,64.74
2022-10-10T05:25:30.233Z,65.09
2022-10-10T05:27:31.881Z,64.65
2022-10-10T05:29:33.514Z,65.29
2022-10-10T05:31:35.186Z,65.73
2022-10-10T05:33:36.831Z,65.91
2022-10-10T05:35:38.493Z,66.54
2022-10-10T05:37:40.195Z,67.45
2022-10-10T05:39:41.984Z,67.42
2022-10-10T05:41:43.629Z,67.76
2022-10-10T05:43:45.323Z,67.89
2022-10-10T05:45:46.980Z,68.11
2022-10-10T05:47:48.623Z,68.26
2022-10-10T05:49:50.262Z,68.92
2022-10-10T05:51:51.960Z,68.97
2022-10-10T05:53:53.666Z,69.38
2022-10-10T05:55:55.428Z,69.56
2022-10-10T05:57:57.115Z,70.10
2022-10-10T05:59:58.750Z,70.52
2022-10-10T06:02:00.446Z,71.19
2022-10-10T06:04:02.294Z,71.37
2022-10-10T06:06:04.571Z,71.32
2022-10-10T06:08:11.600Z,71.54
2022-10-10T06:10:13.997Z,71.93
2022-10-10T06:12:15.619Z,72.10
2022-10-10T06:14:17.307Z,72.46
2022-10-10T06:16:19.028Z,72.36
2022-10-10T06:18:20.740Z,72.51
2022-10-10T06:20:22.656Z,72.80
2022-10-10T06:22:24.512Z,72.80
2022-10-10T06:24:26.250Z,73.55
2022-10-10T06:26:27.972Z,73.96
2022-10-10T06:28:29.657Z,74.47
2022-10-10T06:30:31.488Z,74.37
2022-10-10T06:32:33.261Z,74.82
2022-10-10T06:34:34.897Z,74.84
2022-10-10T06:36:36.521Z,75.97
2022-10-10T06:38:43.346Z,75.43
2022-10-10T06:40:46.047Z,75.44
2022-10-10T06:42:47.671Z,76.15
2022-10-10T06:44:49.413Z,75.56
2022-10-10T06:46:51.119Z,75.71
2022-10-10T06:48:52.784Z,75.00
2022-10-10T06:51:06.550Z,72.18
2022-10-10T06:53:08.237Z,72.06
2022-10-10T06:55:09.999Z,70.38
2022-10-10T06:57:13.199Z,69.87
2022-10-10T06:59:15.048Z,69.57
2022-10-10T07:01:18.729Z,68.72
2022-10-10T07:03:21.735Z,69.32
2022-10-10T07:05:23.433Z,69.51
2022-10-10T07:07:25.078Z,70.10
2022-10-10T07:09:26.712Z,70.55
2022-10-10T07:11:29.043Z,69.93
2022-10-10T07:13:31.260Z,69.82
2022-10-10T07:15:32.948Z,70.33
2022-10-10T07:17:34.779Z,70.22
2022-10-10T07:19:37.836Z,70.20
2022-10-10T07:21:39.644Z,70.20
2022-10-10T07:23:41.331Z,70.82
2022-10-10T07:25:43.858Z,71.07
2022-10-10T07:27:45.621Z,70.19
2022-10-10T07:29:47.248Z,69.01
2022-10-10T07:31:48.882Z,69.41
2022-10-10T07:33:51.084Z,69.49
2022-10-10T07:35:54.811Z,68.46
2022-10-10T07:37:56.634Z,68.38
2022-10-10T07:39:58.366Z,68.32
2022-10-10T07:41:59.982Z,69.26
2022-10-10T07:44:01.905Z,68.55
2022-10-10T07:46:08.199Z,68.36
2022-10-10T07:48:13.086Z,66.72
2022-10-10T07:50:14.747Z,67.77
2022-10-10T07:52:16.402Z,66.63
2022-10-10T07:54:18.288Z,65.76
2022-10-10T07:56:19.933Z,66.42
2022-10-10T07:58:21.540Z,66.63
2022-10-10T08:00:23.302Z,66.82
2022-10-10T08:02:25.069Z,67.11
2022-10-10T08:04:26.970Z,67.24
2022-10-10T08:06:28.828Z,67.52
2022-10-10T08:08:33.954Z,66.51
2022-10-10T08:10:36.438Z,66.49
2022-10-10T08:12:38.279Z,66.63
2022-10-10T08:14:55.759Z,67.12
2022-10-10T08:16:58.799Z,66.39
2022-10-10T08:19:00.634Z,67.24
2022-10-10T08:21:07.836Z,66.81
2022-10-10T08:23:09.503Z,66.81
2022-10-10T08:25:14.705Z,66.27
2022-10-10T08:27:20.990Z,66.29
2022-10-10T08:29:22.693Z,66.17
2022-10-10T08:31:24.469Z,66.69
2022-10-10T08:33:27.951Z,67.32
2022-10-10T08:35:29.754Z,67.17
2022-10-10T08:37:35.208Z,67.48
2022-10-10T08:39:39.034Z,66.80
2022-10-10T08:41:52.347Z,66.29
2022-10-10T08:44:30.257Z,66.07
2022-10-10T08:46:48.236Z,66.64
2022-10-10T08:48:52.005Z,66.85
2022-10-10T08:50:59.559Z,67.31
2022-10-10T08:53:06.533Z,67.37
2022-10-10T08:55:16.441Z,67.91
2022-10-10T08:57:34.026Z,67.50
2022-10-10T08:59:39.810Z,68.03
2022-10-10T09:02:20.060Z,67.03
2022-10-10T09:04:06.557Z,68.01
2022-10-10T09:06:23.426Z,67.17
2022-10-10T09:08:41.730Z,66.74
2022-10-10T09:10:45.965Z,66.48
2022-10-10T09:12:47.539Z,65.53
2022-10-10T09:14:53.097Z,65.48
2022-10-10T09:17:22.431Z,65.37
2022-10-10T09:19:33.066Z,65.33
2022-10-10T09:21:39.623Z,65.44
2022-10-10T09:23:50.079Z,65.71
2022-10-10T09:25:58.842Z,65.99
2022-10-10T09:28:11.507Z,65.90
2022-10-10T09:30:19.915Z,65.49
2022-10-10T09:32:25.921Z,65.50
2022-10-10T09:34:49.551Z,64.97
2022-10-10T09:36:54.174Z,64.75
2022-10-10T09:39:02.792Z,63.78
2022-10-10T09:41:29.888Z,64.13
2022-10-10T09:43:36.312Z,63.84
2022-10-10T09:45:45.154Z,64.09
2022-10-10T09:47:51.341Z,64.58
2022-10-10T09:49:53.119Z,63.78
2022-10-10T09:51:55.018Z,63.86
2022-10-10T09:53:56.799Z,64.12
2022-10-10T09:55:59.728Z,62.79
2022-10-10T09:58:12.039Z,62.20
2022-10-10T10:00:19.842Z,61.66
2022-10-10T10:02:24.942Z,61.76
2022-10-10T10:04:32.831Z,59.32
2022-10-10T10:06:34.610Z,58.04
2022-10-10T10:08:37.121Z,55.42
2022-10-10T10:10:39.010Z,54.92
2022-10-10T10:12:43.041Z,54.59
2022-10-10T10:14:44.812Z,53.70
2022-10-10T10:16:46.496Z,52.64
2022-10-10T10:18:48.254Z,52.97
2022-10-10T10:20:52.436Z,53.10
2022-10-10T10:22:54.221Z,52.46
2022-10-10T10:24:56.084Z,52.31
2022-10-10T10:27:20.570Z,52.11
2022-10-10T10:29:31.775Z,51.55
2022-10-10T10:31:58.071Z,50.35
2022-10-10T10:34:17.401Z,50.56
2022-10-10T10:36:49.144Z,49.75
2022-10-10T10:39:06.825Z,46.83
2022-10-10T10:41:44.206Z,47.04
2022-10-10T10:43:52.098Z,46.13
2022-10-10T10:46:03.015Z,46.90
2022-10-10T10:48:28.448Z,46.38
2022-10-10T10:50:37.750Z,45.24
2022-10-10T10:53:10.385Z,45.28
2022-10-10T10:55:39.395Z,44.97
2022-10-10T10:58:37.271Z,43.92
2022-10-10T11:01:19.935Z,42.53
2022-10-10T11:03:02.534Z,42.98
2022-10-10T11:05:42.438Z,41.35
2022-10-10T11:07:54.025Z,39.16
2022-10-10T11:10:01.552Z,39.34
2022-10-10T11:12:22.229Z,39.36
2022-10-10T11:14:47.544Z,39.26
2022-10-10T11:16:53.952Z,39.28
2022-10-10T11:19:16.375Z,39.10
2022-10-10T11:21:23.529Z,39.00
2022-10-10T11:23:47.553Z,39.22
2022-10-10T11:26:08.863Z,39.26
2022-10-10T11:28:20.552Z,39.22
2022-10-10T11:30:25.197Z,39.48
2022-10-10T11:32:43.059Z,39.41
2022-10-10T11:35:07.655Z,39.39
2022-10-10T11:37:25.678Z,38.93
2022-10-10T11:39:38.476Z,37.83
2022-10-10T11:41:43.094Z,37.18
2022-10-10T11:44:28.764Z,37.11
2022-10-10T11:46:44.312Z,36.77
2022-10-10T11:48:58.052Z,37.18
2022-10-10T11:51:16.127Z,38.11
2022-10-10T11:53:26.438Z,38.91
2022-10-10T11:55:43.438Z,38.95
2022-10-10T11:58:20.466Z,38.73
2022-10-10T12:00:22.657Z,37.96
2022-10-10T12:02:33.261Z,37.90
2022-10-10T12:04:36.210Z,37.22
2022-10-10T12:07:04.285Z,36.76
2022-10-10T12:09:13.511Z,37.34
2022-10-10T12:11:47.778Z,36.97
2022-10-10T12:13:56.759Z,36.24
2022-10-10T12:16:10.231Z,36.23
2022-10-10T12:18:38.550Z,36.37
2022-10-10T12:20:44.834Z,36.99
2022-10-10T12:23:06.205Z,36.11
2022-10-10T12:25:10.860Z,35.86
2022-10-10T12:27:47.448Z,36.39
2022-10-10T12:29:54.956Z,36.28
2022-10-10T12:32:14.937Z,37.03
2022-10-10T12:34:41.227Z,36.37
2022-10-10T12:36:57.069Z,36.67
2022-10-10T12:39:06.652Z,37.01
2022-10-10T12:41:18.808Z,36.89
2022-10-10T12:43:22.380Z,36.23
2022-10-10T12:45:33.010Z,36.06
2022-10-10T12:48:05.384Z,36.22
2022-10-10T12:50:32.836Z,35.73
2022-10-10T12:52:53.751Z,35.62
2022-10-10T12:55:07.443Z,36.61
2022-10-10T12:57:17.842Z,37.21
2022-10-10T12:59:25.265Z,36.78
2022-10-10T13:01:33.552Z,36.72
2022-10-10T13:03:42.211Z,36.89
2022-10-10T13:05:45.807Z,36.95
2022-10-10T13:07:49.680Z,37.00
2022-10-10T13:09:53.732Z,37.04
2022-10-10T13:11:59.868Z,36.43
2022-10-10T13:14:08.926Z,36.51
2022-10-10T13:16:15.693Z,36.74
2022-10-10T13:18:35.294Z,36.55
2022-10-10T13:20:40.230Z,36.80
2022-10-10T13:22:45.219Z,36.44
2022-10-10T13:24:50.768Z,36.92
2022-10-10T13:26:53.573Z,37.08
2022-10-10T13:28:57.868Z,36.76
2022-10-10T13:31:00.568Z,37.22
2022-10-10T13:33:12.326Z,36.93
2022-10-10T13:35:21.901Z,36.43
2022-10-10T13:37:28.075Z,36.44
2022-10-10T13:39:32.351Z,36.08
2022-10-10T13:41:39.015Z,35.31
2022-10-10T13:43:45.671Z,35.85
2022-10-10T13:46:00.204Z,36.12
2022-10-10T13:48:41.904Z,36.21
2022-10-10T13:50:53.385Z,36.37
2022-10-10T13:53:30.229Z,36.63
2022-10-10T13:55:37.980Z,36.79
2022-10-10T13:57:41.468Z,36.43
2022-10-10T13:59:44.972Z,35.51
2022-10-10T14:01:49.454Z,35.55
2022-10-10T14:03:52.672Z,35.20
2022-10-10T14:05:54.551Z,34.91
2022-10-10T14:07:58.175Z,34.99
2022-10-10T14:10:06.126Z,35.11
2022-10-10T14:12:24.386Z,35.40
2022-10-10T14:14:43.285Z,35.60
2022-10-10T14:16:44.942Z,34.55
2022-10-10T14:18:46.745Z,34.22
2022-10-10T14:20:56.566Z,33.72
2022-10-10T14:23:01.530Z,34.08
2022-10-10T14:25:03.372Z,33.68
2022-10-10T14:27:36.881Z,33.70
2022-10-10T14:29:43.322Z,34.21
2022-10-10T14:31:46.744Z,33.60
2022-10-10T14:33:48.422Z,33.74
2022-10-10T14:35:53.936Z,34.01
2022-10-10T14:38:01.722Z,33.82
2022-10-10T14:40:04.325Z,33.48
2022-10-10T14:42:11.956Z,33.76
2022-10-10T14:44:16.107Z,33.63
2022-10-10T14:46:23.590Z,33.78
2022-10-10T14:48:25.435Z,33.46
2022-10-10T14:50:44.233Z,33.69
2022-10-10T14:52:46.040Z,33.64
2022-10-10T14:54:47.688Z,33.53
2022-10-10T14:57:09.043Z,33.45
2022-10-10T14:59:18.268Z,34.04
2022-10-10T15:01:39.929Z,33.33
2022-10-10T15:03:41.577Z,31.99
2022-10-10T15:05:43.428Z,31.93
2022-10-10T15:07:45.596Z,31.27
2022-10-10T15:12:11.785Z,30.16
2022-10-10T15:14:13.460Z,29.59
2022-10-10T15:16:16.449Z,30.12
2022-10-10T15:18:49.186Z,29.82
2022-10-10T15:20:41.038Z,30.93
2022-10-10T15:22:43.109Z,30.22
2022-10-10T15:24:47.705Z,30.33
2022-10-10T15:26:49.437Z,30.07
2022-10-10T15:28:55.309Z,31.37
2022-10-10T15:30:57.117Z,32.03
2022-10-10T15:32:58.764Z,31.26
2022-10-10T15:35:00.708Z,31.00
2022-10-10T15:37:03.059Z,32.58
2022-10-10T15:39:06.561Z,31.85
2022-10-10T15:41:10.192Z,31.76
2022-10-10T15:43:11.906Z,31.92
2022-10-10T15:45:19.375Z,31.97
2022-10-10T15:47:33.286Z,32.20
2022-10-10T15:49:35.335Z,33.40
2022-10-10T15:51:37.250Z,33.43
2022-10-10T15:53:39.174Z,33.37
2022-10-10T15:55:45.679Z,33.56
2022-10-10T15:57:47.313Z,34.13
2022-10-10T15:59:49.609Z,34.57
2022-10-10T16:01:51.249Z,34.59
2022-10-10T16:03:53.205Z,35.15
2022-10-10T16:05:54.906Z,34.93
2022-10-10T16:07:56.531Z,35.32
2022-10-10T16:09:59.109Z,36.30
2022-10-10T16:12:01.685Z,35.82
2022-10-10T16:14:03.525Z,35.93
2022-10-10T16:16:08.060Z,36.94
2022-10-10T16:18:09.736Z,36.59
2022-10-10T16:20:11.797Z,37.29
2022-10-10T16:22:13.462Z,37.43
2022-10-10T16:24:15.266Z,37.83
2022-10-10T16:26:20.073Z,37.53
2022-10-10T16:28:21.795Z,37.21
2022-10-10T16:30:23.451Z,37.52
2022-10-10T16:32:25.108Z,37.92
2022-10-10T16:34:26.792Z,38.06
2022-10-10T16:36:33.328Z,37.30
2022-10-10T16:38:36.206Z,37.55
2022-10-10T16:40:38.166Z,37.83
2022-10-10T16:42:39.771Z,38.24
2022-10-10T16:44:41.493Z,37.95
2022-10-10T16:46:43.236Z,38.46
2022-10-10T16:48:45.687Z,38.32
2022-10-10T16:50:47.353Z,38.38
2022-10-10T16:52:49.020Z,39.24
2022-10-10T16:54:52.384Z,38.65
2022-10-10T16:56:54.220Z,39.35
2022-10-10T16:58:57.635Z,39.05
2022-10-10T17:01:03.617Z,39.59
2022-10-10T17:03:07.545Z,39.67
2022-10-10T17:05:09.696Z,40.06
2022-10-10T17:07:18.421Z,40.10
2022-10-10T17:09:20.111Z,40.33
2022-10-10T17:11:22.740Z,39.97
2022-10-10T17:13:24.627Z,40.11
2022-10-10T17:15:26.633Z,40.34
2022-10-10T17:17:28.282Z,40.53
2022-10-10T17:19:29.955Z,40.45
2022-10-10T17:21:31.821Z,40.67
2022-10-10T17:23:33.527Z,41.22
2022-10-10T17:25:35.174Z,40.86
2022-10-10T17:27:38.945Z,40.83
2022-10-10T17:29:40.717Z,41.05
2022-10-10T17:31:42.948Z,40.79
2022-10-10T17:33:51.002Z,41.60
2022-10-10T17:35:55.152Z,40.83
2022-10-10T17:37:56.883Z,40.81
2022-10-10T17:39:58.631Z,40.77
2022-10-10T17:42:00.614Z,40.60
2022-10-10T17:44:02.453Z,41.06
2022-10-10T17:46:33.073Z,40.88
2022-10-10T17:48:36.811Z,40.78
2022-10-10T17:50:38.485Z,40.98
2022-10-10T17:52:40.257Z,40.64
2022-10-10T17:54:41.977Z,40.63
2022-10-10T17:56:44.752Z,40.63
2022-10-10T17:58:47.307Z,42.50
2022-10-10T18:00:49.196Z,41.28
2022-10-10T18:02:50.853Z,41.68
2022-10-10T18:04:52.582Z,41.51
2022-10-10T18:06:54.240Z,41.95
2022-10-10T18:08:57.153Z,41.24
2022-10-10T18:10:59.101Z,41.14
2022-10-10T18:13:01.823Z,41.78
2022-10-10T18:15:04.250Z,42.05
2022-10-10T18:17:10.645Z,42.18
2022-10-10T18:19:12.295Z,42.01
2022-10-10T18:21:14.647Z,42.15
2022-10-10T18:23:16.416Z,42.24
2022-10-10T18:25:21.627Z,42.21
2022-10-10T18:27:26.928Z,42.19
2022-10-10T18:29:28.572Z,42.23
2022-10-10T18:31:33.436Z,42.12
2022-10-10T18:33:35.189Z,42.08
2022-10-10T18:35:41.323Z,42.40
2022-10-10T18:37:43.360Z,42.99
2022-10-10T18:39:45.023Z,42.03
2022-10-10T18:41:47.337Z,42.36
2022-10-10T18:43:50.687Z,42.10
2022-10-10T18:45:53.955Z,42.48
2022-10-10T18:47:55.724Z,42.26
2022-10-10T18:49:57.502Z,42.13
2022-10-10T18:51:59.239Z,43.70
2022-10-10T18:54:08.262Z,42.98
2022-10-10T18:56:12.921Z,43.06
2022-10-10T18:58:14.620Z,43.17
2022-10-10T19:00:16.658Z,42.54
2022-10-10T19:02:18.329Z,43.03
2022-10-10T19:04:20.875Z,42.55
2022-10-10T19:06:24.518Z,42.49
2022-10-10T19:08:26.208Z,42.39
2022-10-10T19:10:27.838Z,42.73
2022-10-10T19:12:29.465Z,42.94
2022-10-10T19:14:31.115Z,42.78
2022-10-10T19:16:33.682Z,42.57
2022-10-10T19:18:35.329Z,43.82
2022-10-10T19:20:39.167Z,43.30
2022-10-10T19:22:40.837Z,43.65
2022-10-10T19:24:42.624Z,44.34
2022-10-10T19:26:44.846Z,43.84
2022-10-10T19:28:46.981Z,44.23
2022-10-10T19:30:48.702Z,44.45
2022-10-10T19:32:50.458Z,44.20
2022-10-10T19:34:53.297Z,44.16
2022-10-10T19:36:54.933Z,44.25
2022-10-10T19:38:58.931Z,44.27
2022-10-10T19:41:01.146Z,44.89
2022-10-10T19:43:03.194Z,44.69
2022-10-10T19:45:05.132Z,44.31
2022-10-10T19:47:23.223Z,44.04
2022-10-10T19:49:24.919Z,44.14
2022-10-10T19:51:29.291Z,43.99
2022-10-10T19:53:33.444Z,44.62
2022-10-10T19:55:35.135Z,44.73
2022-10-10T19:57:37.365Z,45.01
2022-10-10T19:59:39.164Z,44.80
2022-10-10T20:01:40.926Z,44.78
2022-10-10T20:03:43.960Z,44.88
2022-10-10T20:05:45.603Z,44.75
2022-10-10T20:07:49.875Z,44.98
2022-10-10T20:09:51.632Z,44.76
2022-10-10T20:11:53.292Z,44.86
2022-10-10T20:13:55.968Z,44.79
2022-10-10T20:16:03.809Z,45.29
2022-10-10T20:18:05.737Z,44.95
2022-10-10T20:20:08.012Z,45.32
2022-10-10T20:22:09.788Z,45.29
2022-10-10T20:24:11.851Z,45.25
2022-10-10T20:26:17.418Z,45.63
2022-10-10T20:28:20.820Z,45.45
2022-10-10T20:30:22.853Z,45.33
2022-10-10T20:32:24.610Z,45.25
2022-10-10T20:34:26.317Z,46.00
2022-10-10T20:36:30.189Z,45.80
2022-10-10T20:38:31.877Z,45.71
2022-10-10T20:40:37.739Z,45.43
2022-10-10T20:42:40.210Z,45.46
2022-10-10T20:44:42.547Z,45.43
2022-10-10T20:46:46.352Z,45.27
2022-10-10T20:48:48.453Z,46.16
2022-10-10T20:50:50.127Z,45.72
2022-10-10T20:52:51.807Z,46.00
2022-10-10T20:54:53.511Z,45.90
2022-10-10T20:56:55.145Z,46.06
2022-10-10T20:58:56.896Z,46.41
2022-10-10T21:01:07.164Z,46.42
2022-10-10T21:03:08.814Z,46.16
2022-10-10T21:05:10.509Z,46.73
2022-10-10T21:07:20.242Z,46.72
2022-10-10T21:09:21.944Z,46.48
2022-10-10T21:11:23.963Z,46.87
2022-10-10T21:13:25.739Z,47.23
2022-10-10T21:15:27.458Z,47.41
2022-10-10T21:17:29.530Z,47.05
2022-10-10T21:19:31.636Z,47.54
2022-10-10T21:21:35.213Z,47.61
2022-10-10T21:23:39.336Z,47.58
2022-10-10T21:25:41.824Z,47.58
2022-10-10T21:27:43.442Z,47.38
2022-10-10T21:29:45.157Z,47.24
2022-10-10T21:31:47.203Z,47.43
2022-10-10T21:33:49.023Z,47.33
2022-10-10T21:35:52.673Z,47.75
2022-10-10T21:37:54.345Z,48.05
2022-10-10T21:39:55.993Z,47.90
2022-10-10T21:41:57.634Z,48.00
2022-10-10T21:43:59.836Z,48.00
2022-10-10T21:46:12.035Z,47.73
2022-10-10T21:48:14.239Z,47.79
2022-10-10T21:50:16.003Z,48.14
2022-10-10T21:52:17.626Z,48.08
2022-10-10T21:54:19.294Z,47.71
2022-10-10T21:56:20.934Z,47.86
2022-10-10T21:58:26.377Z,48.77
2022-10-10T22:00:28.135Z,48.52
2022-10-10T22:02:29.835Z,48.31
2022-10-10T22:04:31.473Z,48.57
2022-10-10T22:06:33.136Z,48.61
2022-10-10T22:08:35.503Z,48.60
2022-10-10T22:10:40.866Z,48.80
2022-10-10T22:12:42.799Z,48.86
2022-10-10T22:14:44.435Z,48.67
2022-10-10T22:16:46.366Z,49.15
2022-10-10T22:18:52.264Z,48.97
2022-10-10T22:20:53.974Z,49.10
2022-10-10T22:22:55.649Z,48.78
2022-10-10T22:24:57.629Z,49.19
2022-10-10T22:26:59.544Z,49.37
2022-10-10T22:29:01.234Z,49.48
2022-10-10T22:31:05.380Z,49.31
2022-10-10T22:33:07.383Z,49.27
2022-10-10T22:35:09.192Z,49.29
2022-10-10T22:37:18.238Z,49.31
2022-10-10T22:39:20.196Z,49.48
2022-10-10T22:41:22.224Z,49.82
2022-10-10T22:43:26.930Z,49.70
2022-10-10T22:45:29.465Z,49.96
2022-10-10T22:47:31.243Z,50.39
2022-10-10T22:49:35.002Z,50.19
2022-10-10T22:51:36.632Z,50.49
2022-10-10T22:53:42.678Z,49.94
2022-10-10T22:55:44.313Z,50.22
2022-10-10T22:57:46.235Z,50.15
2022-10-10T22:59:48.488Z,50.16
2022-10-10T23:01:51.694Z,50.23
2022-10-10T23:03:55.533Z,50.09
2022-10-10T23:05:57.259Z,50.25
2022-10-10T23:07:58.859Z,49.79
2022-10-10T23:10:00.602Z,50.46
2022-10-10T23:12:02.262Z,49.90
2022-10-10T23:14:04.318Z,50.08
2022-10-10T23:16:06.726Z,50.18
2022-10-10T23:18:08.680Z,50.16
2022-10-10T23:20:10.530Z,50.14
2022-10-10T23:22:13.026Z,50.24
2022-10-10T23:24:14.777Z,50.75
2022-10-10T23:26:16.564Z,50.10
2022-10-10T23:28:19.131Z,50.30
2022-10-10T23:30:21.070Z,50.36
2022-10-10T23:32:23.581Z,50.50
2022-10-10T23:34:25.291Z,50.74
2022-10-10T23:36:26.944Z,50.47
2022-10-10T23:38:29.259Z,50.94
2022-10-10T23:40:32.817Z,51.19
2022-10-10T23:42:34.511Z,51.09
2022-10-10T23:44:36.230Z,51.00
2022-10-10T23:46:37.862Z,51.41
2022-10-10T23:48:39.632Z,51.43
2022-10-10T23:50:41.400Z,51.53
2022-10-10T23:52:43.163Z,51.28
2022-10-10T23:54:44.806Z,51.26
2022-10-10T23:56:46.427Z,51.18
2022-10-10T23:58:48.049Z,51.32
